Terminal Aerodrome Forecast
Issued by NWS

Home | Current Version | Previous Version | Text Only | Print | Product List | Glossary On
Versions: 1 2 3 4 5 6 7 8 9 10 11 12 13 14 15 16
398
FTUS45 KABQ 240151 AAA
TAFSAF
TAF AMD
KSAF 240151Z 2402/2424 25017KT P6SM VCSH SCT035 BKN050
      TEMPO 2402/2403 4SM -SHSN BKN020
     FM240400 26018G28KT P6SM SCT040 BKN070
     FM241600 26020G30KT P6SM SCT070=

USA.gov is the U.S. government's official web portal to all federal, state and local government web resources and services.